Terminal Aerodrome Forecast
Issued by NWS

Home | Current Version | Previous Version | Text Only | Print | Product List | Glossary On
Versions: 1 2 3 4 5 6 7 8 9 10 11 12 13 14 15 16 17 18 19 20 21 22 23 24
000
FTAK31 PANC 031125
TAFAGK
TAF
PAGK 031125Z 0312/0412 VRB03KT P6SM OVC200
     FM032100 16006KT P6SM SCT060 BKN120 OVC200
     FM040300 16007KT 6SM -RA BR OVC060
     FM040700 15007KT 4SM -RA BR OVC015=

USA.gov is the U.S. government's official web portal to all federal, state and local government web resources and services.